createdAt,value
2018-01-31T01:52:26.579Z,0
2018-01-31T01:53:27.970Z,0
2018-01-31T01:54:29.425Z,0
2018-01-31T01:55:30.869Z,0
2018-01-31T01:56:32.650Z,0
2018-01-31T01:57:34.074Z,0
2018-01-31T01:58:35.531Z,0
2018-01-31T01:59:37.018Z,0
2018-01-31T02:00:38.531Z,0
2018-01-31T02:01:40.024Z,0
2018-01-31T02:02:41.787Z,0
2018-01-31T02:03:43.246Z,0
2018-01-31T02:04:45.020Z,0
2018-01-31T02:05:46.420Z,0
2018-01-31T02:06:48.148Z,0
2018-01-31T02:07:49.607Z,0
2018-01-31T02:08:51.091Z,0
2018-01-31T02:09:52.623Z,0
2018-01-31T02:10:54.055Z,0
2018-01-31T02:11:55.893Z,0
2018-01-31T02:12:57.409Z,0
2018-01-31T02:13:58.851Z,0
2018-01-31T02:15:00.326Z,0
2018-01-31T02:16:01.745Z,0
2018-01-31T02:17:03.192Z,0
2018-01-31T02:18:04.633Z,0
2018-01-31T02:19:06.028Z,0
2018-01-31T02:20:07.532Z,0
2018-01-31T02:21:08.966Z,0
2018-01-31T02:22:10.444Z,0
2018-01-31T02:23:11.900Z,0
2018-01-31T02:24:13.595Z,0
2018-01-31T02:25:15.119Z,0
2018-01-31T02:26:16.529Z,0
2018-01-31T02:27:17.965Z,0
2018-01-31T02:28:19.417Z,0
2018-01-31T02:29:20.813Z,0
2018-01-31T02:30:22.516Z,0
2018-01-31T02:31:23.930Z,0
2018-01-31T02:32:25.332Z,0
2018-01-31T02:33:26.923Z,0
2018-01-31T02:34:28.306Z,0
2018-01-31T02:35:29.741Z,0
2018-01-31T02:36:31.131Z,0
2018-01-31T02:37:32.614Z,0
2018-01-31T02:38:34.031Z,0
2018-01-31T02:39:35.473Z,0
2018-01-31T02:40:36.877Z,0
2018-01-31T02:41:38.349Z,0
2018-01-31T02:42:39.797Z,0
2018-01-31T02:43:41.214Z,0
2018-01-31T02:44:42.700Z,0
2018-01-31T02:45:44.092Z,0
2018-01-31T02:46:45.475Z,0
2018-01-31T02:47:46.883Z,0
2018-01-31T02:48:48.323Z,0
2018-01-31T02:49:50.066Z,0
2018-01-31T02:50:51.454Z,0
2018-01-31T02:51:52.882Z,0
2018-01-31T02:52:54.352Z,0
2018-01-31T02:53:55.758Z,0
2018-01-31T02:54:57.182Z,0
2018-01-31T02:55:58.601Z,0
2018-01-31T02:57:00.046Z,0
2018-01-31T02:58:01.484Z,0
2018-01-31T02:59:02.962Z,0
2018-01-31T03:00:04.393Z,0
2018-01-31T03:01:05.771Z,0
2018-01-31T03:02:07.231Z,0
2018-01-31T03:03:08.634Z,0
2018-01-31T03:04:10.046Z,0
2018-01-31T03:05:11.495Z,0
2018-01-31T03:06:12.912Z,0
2018-01-31T03:07:14.301Z,0
2018-01-31T03:08:15.720Z,0
2018-01-31T03:09:17.140Z,0
2018-01-31T03:10:18.549Z,0
2018-01-31T03:11:19.968Z,0
2018-01-31T03:12:21.410Z,0
2018-01-31T03:13:22.763Z,0
2018-01-31T03:14:24.149Z,0
2018-01-31T03:15:25.555Z,0
2018-01-31T03:16:26.951Z,0
2018-01-31T03:17:28.324Z,0
2018-01-31T03:18:29.713Z,0
2018-01-31T03:19:31.121Z,0
2018-01-31T03:20:32.510Z,0
2018-01-31T03:21:33.962Z,0
2018-01-31T03:22:35.348Z,0
2018-01-31T03:23:36.842Z,0
2018-01-31T03:24:38.254Z,0
2018-01-31T03:25:39.708Z,0
2018-01-31T03:26:41.140Z,0
2018-01-31T03:27:42.549Z,0
2018-01-31T03:28:43.999Z,0
2018-01-31T03:29:45.379Z,0
2018-01-31T03:30:46.866Z,0
2018-01-31T03:31:48.316Z,0
2018-01-31T03:32:49.718Z,0
2018-01-31T03:33:51.170Z,0
2018-01-31T03:34:52.596Z,0
2018-01-31T03:35:53.992Z,0
2018-01-31T03:36:55.399Z,0
2018-01-31T03:37:56.828Z,0
2018-01-31T03:38:58.279Z,0
2018-01-31T03:39:59.662Z,0
2018-01-31T03:41:01.096Z,0
2018-01-31T03:42:02.521Z,0
2018-01-31T03:43:03.893Z,0
2018-01-31T03:44:05.284Z,0
2018-01-31T03:45:06.703Z,0
2018-01-31T03:46:08.126Z,0
2018-01-31T03:47:09.527Z,0
2018-01-31T03:48:10.899Z,0
2018-01-31T03:49:12.350Z,0
2018-01-31T03:50:13.798Z,0
2018-01-31T03:51:15.216Z,0
2018-01-31T03:52:16.699Z,0
2018-01-31T03:53:18.089Z,0
2018-01-31T03:54:19.527Z,0
2018-01-31T03:55:20.995Z,0
2018-01-31T03:56:22.463Z,0
2018-01-31T03:57:23.867Z,0
2018-01-31T03:58:25.289Z,0
2018-01-31T03:59:26.770Z,0
2018-01-31T04:00:28.167Z,0
2018-01-31T04:01:29.596Z,0
2018-01-31T04:02:31.035Z,0
2018-01-31T04:03:32.479Z,0
2018-01-31T04:04:33.904Z,0
2018-01-31T04:05:35.290Z,0
2018-01-31T04:06:36.744Z,0
2018-01-31T04:07:38.139Z,0
2018-01-31T04:08:39.577Z,0
2018-01-31T04:09:41.003Z,0
2018-01-31T04:10:42.449Z,0
2018-01-31T04:11:43.892Z,0
2018-01-31T04:12:45.317Z,0
2018-01-31T04:13:46.747Z,0
2018-01-31T04:14:48.203Z,0
2018-01-31T04:15:49.641Z,0
2018-01-31T04:16:51.079Z,0
2018-01-31T04:17:52.619Z,0
2018-01-31T04:18:54.110Z,0
2018-01-31T04:19:55.541Z,0
2018-01-31T04:20:57.030Z,0
2018-01-31T04:21:58.451Z,0
2018-01-31T04:22:59.845Z,0
2018-01-31T04:24:01.212Z,0
2018-01-31T04:25:02.626Z,0
2018-01-31T04:26:04.071Z,0
2018-01-31T04:27:05.451Z,0
2018-01-31T04:28:06.952Z,0
2018-01-31T04:29:08.516Z,0
2018-01-31T04:30:09.889Z,0
2018-01-31T04:31:11.328Z,0
2018-01-31T04:32:12.676Z,0
2018-01-31T04:33:14.083Z,0
2018-01-31T04:34:15.498Z,0
2018-01-31T04:35:16.939Z,0
2018-01-31T04:36:18.371Z,0
2018-01-31T04:37:19.786Z,0
2018-01-31T04:38:21.164Z,0
2018-01-31T04:39:22.539Z,0
2018-01-31T04:40:23.910Z,0
2018-01-31T04:41:25.360Z,0
2018-01-31T04:42:26.806Z,0
2018-01-31T04:43:28.214Z,0
2018-01-31T04:44:29.606Z,0
2018-01-31T04:45:30.988Z,0
2018-01-31T04:46:32.369Z,0
2018-01-31T04:47:33.853Z,0
2018-01-31T04:48:35.249Z,0
2018-01-31T04:49:36.679Z,0
2018-01-31T04:50:38.061Z,0
2018-01-31T04:51:39.434Z,0
2018-01-31T04:52:40.875Z,0
2018-01-31T04:53:42.316Z,0
2018-01-31T04:54:43.741Z,0
2018-01-31T04:55:45.177Z,0
2018-01-31T04:56:46.566Z,0
2018-01-31T04:57:47.963Z,0
2018-01-31T04:58:49.334Z,0
2018-01-31T04:59:50.785Z,0
2018-01-31T05:00:52.207Z,0
2018-01-31T05:01:53.593Z,0
2018-01-31T05:02:54.966Z,0
2018-01-31T05:03:56.334Z,0
2018-01-31T05:04:57.754Z,0
2018-01-31T05:05:59.197Z,0
2018-01-31T05:07:00.611Z,0
2018-01-31T05:08:02.043Z,0
2018-01-31T05:09:03.448Z,0
2018-01-31T05:10:04.833Z,0
2018-01-31T05:11:06.212Z,0
2018-01-31T05:12:07.604Z,0
2018-01-31T05:13:09.004Z,0
2018-01-31T05:14:10.396Z,0
2018-01-31T05:15:11.857Z,0
2018-01-31T05:16:13.259Z,0
2018-01-31T05:17:14.716Z,0
2018-01-31T05:18:16.126Z,0
2018-01-31T05:19:17.520Z,0
2018-01-31T05:20:18.925Z,0
2018-01-31T05:21:20.327Z,0
2018-01-31T05:22:21.740Z,0
2018-01-31T05:23:23.166Z,0
2018-01-31T05:24:24.552Z,0
2018-01-31T05:25:25.962Z,0
2018-01-31T05:26:27.353Z,0
2018-01-31T05:27:28.798Z,0
2018-01-31T05:28:30.188Z,0
2018-01-31T05:29:31.641Z,0
2018-01-31T05:30:33.070Z,0
2018-01-31T05:31:34.496Z,0
2018-01-31T05:32:35.920Z,0
2018-01-31T05:33:37.303Z,0
2018-01-31T05:34:38.687Z,0
2018-01-31T05:35:40.102Z,0
2018-01-31T05:36:41.555Z,0
2018-01-31T05:37:42.992Z,0
2018-01-31T05:38:44.366Z,0
2018-01-31T05:39:45.806Z,0
2018-01-31T05:40:47.271Z,0
2018-01-31T05:41:48.703Z,0
2018-01-31T05:42:50.086Z,0
2018-01-31T05:43:51.517Z,0
2018-01-31T05:44:52.908Z,0
2018-01-31T05:45:54.357Z,0
2018-01-31T05:46:55.754Z,0
2018-01-31T05:47:57.172Z,0
2018-01-31T05:48:58.575Z,0
2018-01-31T05:50:00.035Z,0
2018-01-31T05:51:01.410Z,0
2018-01-31T05:52:02.825Z,0
2018-01-31T05:53:04.280Z,0
2018-01-31T05:54:05.667Z,0
2018-01-31T05:55:07.074Z,0
2018-01-31T05:56:08.459Z,0
2018-01-31T05:57:09.880Z,0
2018-01-31T05:58:11.261Z,0
2018-01-31T05:59:12.674Z,0
2018-01-31T06:00:14.082Z,0
2018-01-31T06:01:15.491Z,0
2018-01-31T06:02:16.932Z,0
2018-01-31T06:03:18.342Z,0
2018-01-31T06:04:19.746Z,0
2018-01-31T06:05:21.143Z,0
2018-01-31T06:06:22.557Z,0
2018-01-31T06:07:23.959Z,0
2018-01-31T06:08:25.382Z,0
2018-01-31T06:09:26.855Z,0
2018-01-31T06:10:28.276Z,0
2018-01-31T06:11:29.691Z,0
2018-01-31T06:12:31.119Z,0
2018-01-31T06:13:32.556Z,0
2018-01-31T06:14:33.945Z,0
2018-01-31T06:15:35.363Z,0
2018-01-31T06:16:36.838Z,0
2018-01-31T06:17:38.251Z,0
2018-01-31T06:18:39.691Z,0
2018-01-31T06:19:41.094Z,0
2018-01-31T06:20:42.535Z,0
2018-01-31T06:21:43.963Z,0
2018-01-31T06:22:45.374Z,0
2018-01-31T06:23:46.814Z,0
2018-01-31T06:24:48.225Z,0
2018-01-31T06:25:49.653Z,0
2018-01-31T06:26:51.038Z,0
2018-01-31T06:27:52.444Z,0
2018-01-31T06:28:53.840Z,0
2018-01-31T06:29:55.260Z,0
2018-01-31T06:30:56.683Z,0
2018-01-31T06:31:58.121Z,0
2018-01-31T06:32:59.513Z,0
2018-01-31T06:34:00.900Z,0
2018-01-31T06:35:02.357Z,0
2018-01-31T06:36:03.772Z,0
2018-01-31T06:37:05.181Z,0
2018-01-31T06:38:06.582Z,0
2018-01-31T06:39:08.005Z,0
2018-01-31T06:40:09.435Z,0
2018-01-31T06:41:10.816Z,0
2018-01-31T06:42:12.233Z,0
2018-01-31T06:43:13.644Z,0
2018-01-31T06:44:15.062Z,0
2018-01-31T06:45:16.507Z,0
2018-01-31T06:46:17.921Z,0
2018-01-31T06:47:19.323Z,0
2018-01-31T06:48:20.715Z,0
2018-01-31T06:49:22.146Z,0
2018-01-31T06:50:23.524Z,0
2018-01-31T06:51:24.952Z,0
2018-01-31T06:52:26.368Z,0
2018-01-31T06:53:27.806Z,0
2018-01-31T06:54:29.212Z,0
2018-01-31T06:55:30.602Z,0
2018-01-31T06:56:32.033Z,0
2018-01-31T06:57:33.426Z,0
2018-01-31T06:58:34.880Z,0
2018-01-31T06:59:36.311Z,0
2018-01-31T07:00:37.718Z,0
2018-01-31T07:01:39.183Z,0
2018-01-31T07:02:40.573Z,0
2018-01-31T07:03:42.041Z,0
2018-01-31T07:04:43.456Z,0
2018-01-31T07:05:44.850Z,0
2018-01-31T07:06:46.293Z,0
2018-01-31T07:07:47.769Z,5
2018-01-31T07:08:49.189Z,5
2018-01-31T07:09:50.578Z,0
2018-01-31T07:10:51.987Z,0
2018-01-31T07:11:53.402Z,5
2018-01-31T07:12:54.819Z,5
2018-01-31T07:13:56.221Z,5
2018-01-31T07:14:57.633Z,5
2018-01-31T07:15:59.048Z,5
2018-01-31T07:17:00.471Z,10
2018-01-31T07:18:01.877Z,5
2018-01-31T07:19:03.308Z,10
2018-01-31T07:20:04.719Z,5
2018-01-31T07:21:06.140Z,10
2018-01-31T07:22:07.602Z,15
2018-01-31T07:23:09.033Z,20
2018-01-31T07:24:10.485Z,15
2018-01-31T07:25:11.986Z,15
2018-01-31T07:26:13.437Z,20
2018-01-31T07:27:14.872Z,15
2018-01-31T07:28:16.294Z,15
2018-01-31T07:29:17.787Z,20
2018-01-31T07:30:19.197Z,25
2018-01-31T07:31:20.620Z,30
2018-01-31T07:32:22.124Z,25
2018-01-31T07:33:23.561Z,25
2018-01-31T07:34:25.028Z,30
2018-01-31T07:35:26.501Z,25
2018-01-31T07:36:27.973Z,25
2018-01-31T07:37:29.377Z,20
2018-01-31T07:38:30.780Z,25
2018-01-31T07:39:32.196Z,30
2018-01-31T07:40:33.582Z,35
2018-01-31T07:41:35.016Z,40
2018-01-31T07:42:36.452Z,40
2018-01-31T07:43:37.884Z,40
2018-01-31T07:44:39.356Z,40
2018-01-31T07:45:40.811Z,40
2018-01-31T07:46:42.273Z,50
2018-01-31T07:47:43.685Z,55
2018-01-31T07:48:45.076Z,60
2018-01-31T07:49:46.490Z,55
2018-01-31T07:50:47.890Z,50
2018-01-31T07:51:49.317Z,55
2018-01-31T07:52:50.722Z,65
2018-01-31T07:53:52.194Z,75
2018-01-31T07:54:53.602Z,75
2018-01-31T07:55:54.988Z,75
2018-01-31T07:56:56.368Z,85
2018-01-31T07:57:57.775Z,85
2018-01-31T07:58:59.158Z,95
2018-01-31T08:00:00.578Z,100
2018-01-31T08:01:01.968Z,95
2018-01-31T08:02:03.386Z,100
2018-01-31T08:03:04.795Z,90
2018-01-31T08:04:06.207Z,90
2018-01-31T08:05:07.693Z,80
2018-01-31T08:06:09.123Z,95
2018-01-31T08:07:10.523Z,90
2018-01-31T08:08:12.033Z,110
2018-01-31T08:09:13.383Z,120
2018-01-31T08:10:14.788Z,100
2018-01-31T08:11:16.197Z,95
2018-01-31T08:12:17.655Z,105
2018-01-31T08:13:19.107Z,90
2018-01-31T08:14:20.547Z,80
2018-01-31T08:15:22.024Z,90
2018-01-31T08:16:23.449Z,105
2018-01-31T08:17:24.841Z,105
2018-01-31T08:18:26.239Z,75
2018-01-31T08:19:27.658Z,75
2018-01-31T08:20:29.074Z,80
2018-01-31T08:21:30.507Z,110
2018-01-31T08:22:31.908Z,125
2018-01-31T08:23:33.317Z,110
2018-01-31T08:24:34.724Z,100
2018-01-31T08:25:36.133Z,100
2018-01-31T08:26:37.593Z,90
2018-01-31T08:27:39.006Z,85
2018-01-31T08:28:40.435Z,80
2018-01-31T08:29:41.876Z,95
2018-01-31T08:30:43.275Z,105
2018-01-31T08:31:44.690Z,90
2018-01-31T08:32:46.106Z,100
2018-01-31T08:33:47.496Z,95
2018-01-31T08:34:48.918Z,90
2018-01-31T08:35:50.300Z,100
2018-01-31T08:36:51.723Z,105
2018-01-31T08:37:53.149Z,125
2018-01-31T08:38:54.547Z,160
2018-01-31T08:39:55.939Z,120
2018-01-31T08:40:57.428Z,90
2018-01-31T08:41:58.822Z,105
2018-01-31T08:43:00.210Z,125
2018-01-31T08:44:01.654Z,105
2018-01-31T08:45:03.101Z,90
2018-01-31T08:46:04.549Z,130
2018-01-31T08:47:05.977Z,180
2018-01-31T08:48:07.414Z,195
2018-01-31T08:49:08.824Z,215
2018-01-31T08:50:10.193Z,225
2018-01-31T08:51:11.624Z,220
2018-01-31T08:52:13.048Z,230
2018-01-31T08:53:14.479Z,260
2018-01-31T08:54:15.868Z,235
2018-01-31T08:55:17.309Z,235
2018-01-31T08:56:18.702Z,240
2018-01-31T08:57:20.146Z,240
2018-01-31T08:58:21.542Z,235
2018-01-31T08:59:22.975Z,235
2018-01-31T09:00:24.352Z,195
2018-01-31T09:01:25.747Z,220
2018-01-31T09:02:27.174Z,225
2018-01-31T09:03:28.595Z,230
2018-01-31T09:04:30.005Z,240
2018-01-31T09:05:31.423Z,235
2018-01-31T09:06:32.847Z,235
2018-01-31T09:07:34.238Z,225
2018-01-31T09:08:35.638Z,180
2018-01-31T09:09:37.091Z,175
2018-01-31T09:10:38.490Z,185
2018-01-31T09:11:39.880Z,180
2018-01-31T09:12:41.367Z,195
2018-01-31T09:13:42.810Z,205
2018-01-31T09:14:44.239Z,225
2018-01-31T09:15:45.637Z,225
2018-01-31T09:16:47.092Z,230
2018-01-31T09:17:48.509Z,215
2018-01-31T09:18:49.964Z,200
2018-01-31T09:19:51.376Z,215
2018-01-31T09:20:52.799Z,240
2018-01-31T09:21:54.209Z,250
2018-01-31T09:22:55.652Z,205
2018-01-31T09:23:57.105Z,185
2018-01-31T09:24:58.522Z,175
2018-01-31T09:25:59.960Z,165
2018-01-31T09:27:01.401Z,170
2018-01-31T09:28:02.839Z,200
2018-01-31T09:29:04.289Z,235
2018-01-31T09:30:05.718Z,185
2018-01-31T09:31:07.225Z,175
2018-01-31T09:32:08.607Z,125
2018-01-31T09:33:10.046Z,110
2018-01-31T09:34:11.458Z,170
2018-01-31T09:35:12.873Z,170
2018-01-31T09:36:14.271Z,230
2018-01-31T09:37:15.693Z,190
2018-01-31T09:38:17.150Z,220
2018-01-31T09:39:18.544Z,200
2018-01-31T09:40:19.922Z,165
2018-01-31T09:41:21.308Z,155
2018-01-31T09:42:22.775Z,155
2018-01-31T09:43:24.179Z,150
2018-01-31T09:44:25.605Z,175
2018-01-31T09:45:27.117Z,200
2018-01-31T09:46:28.546Z,195
2018-01-31T09:47:29.965Z,190
2018-01-31T09:48:31.382Z,195
2018-01-31T09:49:32.835Z,180
2018-01-31T09:50:34.229Z,135
2018-01-31T09:51:35.683Z,150
2018-01-31T09:52:37.124Z,165
2018-01-31T09:53:38.502Z,135
2018-01-31T09:54:39.891Z,165
2018-01-31T09:55:41.295Z,185
2018-01-31T09:56:42.681Z,200
2018-01-31T09:57:44.104Z,200
2018-01-31T09:58:45.562Z,185
2018-01-31T09:59:47.029Z,190
2018-01-31T10:00:48.426Z,180
2018-01-31T10:01:49.870Z,155
2018-01-31T10:02:51.280Z,165
2018-01-31T10:03:52.751Z,195
2018-01-31T10:04:54.174Z,210
2018-01-31T10:05:55.593Z,235
2018-01-31T10:06:57.056Z,250
2018-01-31T10:07:58.482Z,255
2018-01-31T10:08:59.877Z,235
2018-01-31T10:10:01.313Z,330
2018-01-31T10:11:02.755Z,355
2018-01-31T10:12:04.148Z,290
2018-01-31T10:13:05.563Z,325
2018-01-31T10:14:06.984Z,315
2018-01-31T10:15:08.416Z,310
2018-01-31T10:16:09.879Z,315
2018-01-31T10:17:11.243Z,330
2018-01-31T10:18:12.694Z,355
2018-01-31T10:19:14.133Z,410
2018-01-31T10:20:15.552Z,415
2018-01-31T10:21:17.031Z,430
2018-01-31T10:22:18.475Z,460
2018-01-31T10:23:19.890Z,490
2018-01-31T10:24:21.312Z,510
2018-01-31T10:25:22.754Z,495
2018-01-31T10:26:24.163Z,450
2018-01-31T10:27:25.585Z,475
2018-01-31T10:28:27.033Z,515
2018-01-31T10:29:28.451Z,550
2018-01-31T10:30:29.907Z,570
2018-01-31T10:31:31.315Z,510
2018-01-31T10:32:32.777Z,455
2018-01-31T10:33:34.181Z,440
2018-01-31T10:34:35.613Z,430
2018-01-31T10:35:37.088Z,375
2018-01-31T10:36:38.492Z,375
2018-01-31T10:37:39.884Z,390
2018-01-31T10:38:41.294Z,305
2018-01-31T10:39:42.716Z,285
2018-01-31T10:40:44.148Z,300
2018-01-31T10:41:45.558Z,325
2018-01-31T10:42:47.011Z,300
2018-01-31T10:43:48.456Z,315
2018-01-31T10:44:49.889Z,295
2018-01-31T10:45:51.288Z,320
2018-01-31T10:46:52.735Z,320
2018-01-31T10:47:54.122Z,305
2018-01-31T10:48:55.539Z,285
2018-01-31T10:49:56.952Z,260
2018-01-31T10:50:58.364Z,200
2018-01-31T10:51:59.820Z,185
2018-01-31T10:53:01.198Z,190
2018-01-31T10:57:28.988Z,150
2018-01-31T10:58:08.118Z,145
2018-01-31T10:59:09.581Z,210
2018-01-31T11:00:10.954Z,205
2018-01-31T11:01:12.383Z,180
2018-01-31T11:02:13.756Z,175
2018-01-31T11:03:15.196Z,155
2018-01-31T11:04:16.609Z,165
2018-01-31T11:05:18.056Z,180
2018-01-31T11:06:19.498Z,200
2018-01-31T11:07:20.890Z,195
2018-01-31T11:08:22.304Z,180
2018-01-31T11:09:23.678Z,175
2018-01-31T11:10:25.082Z,175
2018-01-31T11:11:26.459Z,170
2018-01-31T11:12:27.884Z,145
2018-01-31T11:13:29.313Z,205
2018-01-31T11:14:30.716Z,200
2018-01-31T11:15:32.132Z,190
2018-01-31T11:16:33.508Z,240
2018-01-31T11:17:34.894Z,195
2018-01-31T11:18:36.330Z,270
2018-01-31T11:19:37.724Z,210
2018-01-31T11:20:39.289Z,245
2018-01-31T11:21:40.724Z,240
2018-01-31T11:22:42.112Z,220
2018-01-31T11:23:43.534Z,210
2018-01-31T11:24:44.926Z,230
2018-01-31T11:25:46.360Z,280
2018-01-31T11:26:47.770Z,220
2018-01-31T11:27:49.151Z,230
2018-01-31T11:28:50.527Z,215
2018-01-31T11:29:51.984Z,250
2018-01-31T11:30:53.395Z,220
2018-01-31T11:31:54.807Z,225
2018-01-31T11:32:56.223Z,195
2018-01-31T11:33:57.634Z,170
2018-01-31T11:34:59.070Z,180
2018-01-31T11:36:00.501Z,200
2018-01-31T11:37:01.985Z,235
2018-01-31T11:38:03.407Z,250
2018-01-31T11:39:04.874Z,255
2018-01-31T11:40:06.312Z,300
2018-01-31T11:41:07.785Z,270
2018-01-31T11:42:09.181Z,265
2018-01-31T11:43:10.575Z,250
2018-01-31T11:44:12.008Z,255
2018-01-31T11:45:13.448Z,230
2018-01-31T11:46:14.877Z,225
2018-01-31T11:47:16.254Z,205
2018-01-31T11:48:17.674Z,235
2018-01-31T11:49:19.075Z,230
2018-01-31T11:50:20.527Z,220
2018-01-31T11:51:22.083Z,200
2018-01-31T11:52:23.437Z,200
2018-01-31T11:53:24.886Z,200
2018-01-31T11:54:26.314Z,185
2018-01-31T11:55:27.715Z,200
2018-01-31T11:56:29.135Z,225
2018-01-31T11:57:30.580Z,230
2018-01-31T11:58:32.038Z,235
2018-01-31T11:59:33.454Z,205
2018-01-31T12:00:34.881Z,175
2018-01-31T12:01:36.276Z,150
2018-01-31T12:02:37.725Z,165
2018-01-31T12:03:39.168Z,175
2018-01-31T12:04:40.600Z,155
2018-01-31T12:05:42.059Z,140
2018-01-31T12:06:43.450Z,155
2018-01-31T12:07:44.898Z,190
2018-01-31T12:08:46.340Z,165
2018-01-31T12:09:47.776Z,170
2018-01-31T12:10:49.174Z,165
2018-01-31T12:11:50.619Z,165
2018-01-31T12:12:52.052Z,155
2018-01-31T12:13:53.461Z,155
2018-01-31T12:14:54.884Z,135
2018-01-31T12:15:56.338Z,115
2018-01-31T12:16:57.746Z,95
2018-01-31T12:17:59.137Z,90
2018-01-31T12:19:00.579Z,100
2018-01-31T12:20:02.016Z,105
2018-01-31T12:21:03.392Z,120
2018-01-31T12:22:04.831Z,130
2018-01-31T12:23:06.222Z,150
2018-01-31T12:24:07.692Z,160
2018-01-31T12:25:09.084Z,150
2018-01-31T12:26:10.535Z,155
2018-01-31T12:27:11.936Z,175
2018-01-31T12:28:13.304Z,195
2018-01-31T12:29:14.695Z,180
2018-01-31T12:30:16.109Z,210
2018-01-31T12:31:17.563Z,185
2018-01-31T12:32:18.972Z,175
2018-01-31T12:33:20.415Z,180
2018-01-31T12:34:21.793Z,155
2018-01-31T12:35:23.222Z,165
2018-01-31T12:36:24.639Z,200
2018-01-31T12:37:26.017Z,215
2018-01-31T12:38:27.441Z,200
2018-01-31T12:39:28.874Z,185
2018-01-31T12:40:30.328Z,210
2018-01-31T12:41:31.737Z,165
2018-01-31T12:42:33.182Z,205
2018-01-31T12:43:34.592Z,250
2018-01-31T12:44:35.988Z,210
2018-01-31T12:45:37.461Z,225
2018-01-31T12:46:39.154Z,235
2018-01-31T12:47:41.005Z,240
2018-01-31T12:48:42.502Z,160
2018-01-31T12:49:43.932Z,120
2018-01-31T12:50:45.328Z,220
2018-01-31T12:51:46.784Z,225
2018-01-31T12:52:48.224Z,195
2018-01-31T12:53:49.657Z,160
2018-01-31T12:54:51.111Z,140
2018-01-31T12:55:52.570Z,125
2018-01-31T12:56:54.276Z,165
2018-01-31T12:57:55.861Z,200
2018-01-31T12:58:57.830Z,185
2018-01-31T12:59:59.268Z,140
2018-01-31T13:01:00.676Z,130
2018-01-31T13:02:02.137Z,150
2018-01-31T13:03:03.541Z,170
2018-01-31T13:04:04.977Z,155
2018-01-31T13:05:06.400Z,165
2018-01-31T13:06:07.890Z,135
2018-01-31T13:07:09.280Z,95
2018-01-31T13:08:10.668Z,95
2018-01-31T13:09:12.144Z,80
2018-01-31T13:10:13.571Z,80
2018-01-31T13:11:15.002Z,110
2018-01-31T13:12:16.450Z,95
2018-01-31T13:13:17.852Z,95
2018-01-31T13:14:19.258Z,110
2018-01-31T13:15:20.644Z,90
2018-01-31T13:16:22.099Z,75
2018-01-31T13:17:23.494Z,80
2018-01-31T13:18:24.944Z,95
2018-01-31T13:19:26.328Z,90
2018-01-31T13:20:27.743Z,100
2018-01-31T13:21:29.140Z,80
2018-01-31T13:22:30.574Z,95
2018-01-31T13:23:31.985Z,110
2018-01-31T13:24:33.413Z,65
2018-01-31T13:25:34.832Z,80
2018-01-31T13:26:36.312Z,95
2018-01-31T13:27:37.774Z,95
2018-01-31T13:28:39.283Z,110
2018-01-31T13:29:40.887Z,110
2018-01-31T13:30:42.447Z,115
2018-01-31T13:31:44.074Z,105
2018-01-31T13:32:45.591Z,100
2018-01-31T13:33:47.043Z,125
2018-01-31T13:34:48.423Z,110
2018-01-31T13:35:50.033Z,105
2018-01-31T13:36:51.723Z,85
2018-01-31T13:37:53.204Z,100
2018-01-31T13:38:54.718Z,110
2018-01-31T13:39:56.103Z,85
2018-01-31T13:40:57.501Z,100
2018-01-31T13:41:58.925Z,65
2018-01-31T13:43:00.349Z,80
2018-01-31T13:44:01.788Z,90
2018-01-31T13:45:03.254Z,75
2018-01-31T13:46:04.693Z,75
2018-01-31T13:47:06.106Z,50
2018-01-31T13:48:07.652Z,60
2018-01-31T13:49:09.131Z,60
2018-01-31T13:50:10.565Z,100
2018-01-31T13:51:11.983Z,75
2018-01-31T13:52:13.420Z,80
2018-01-31T13:53:15.014Z,115
2018-01-31T13:54:16.457Z,120
2018-01-31T13:55:17.887Z,120
2018-01-31T13:56:19.891Z,115
2018-01-31T13:57:21.373Z,100
2018-01-31T13:58:22.878Z,95
2018-01-31T13:59:24.295Z,95
2018-01-31T14:00:25.770Z,105
2018-01-31T14:01:27.332Z,110
2018-01-31T14:02:28.786Z,115
2018-01-31T14:03:30.224Z,115
2018-01-31T14:04:31.763Z,120
2018-01-31T14:05:33.270Z,120
2018-01-31T14:06:34.739Z,110
2018-01-31T14:07:36.178Z,105
2018-01-31T14:08:37.827Z,95
2018-01-31T14:09:39.403Z,95
2018-01-31T14:10:40.872Z,95
2018-01-31T14:11:42.330Z,95
2018-01-31T14:12:43.835Z,95
2018-01-31T14:13:45.266Z,95
2018-01-31T14:14:46.702Z,95
2018-01-31T14:15:48.115Z,95
2018-01-31T14:16:49.585Z,95
2018-01-31T14:17:51.295Z,95
2018-01-31T14:18:52.813Z,90
2018-01-31T14:19:54.293Z,90
2018-01-31T14:20:55.945Z,90
2018-01-31T14:21:57.420Z,80
2018-01-31T14:22:58.923Z,90
2018-01-31T14:24:00.459Z,85
2018-01-31T14:25:01.876Z,85
2018-01-31T14:26:03.339Z,75
2018-01-31T14:27:04.864Z,85
2018-01-31T14:28:06.288Z,70
2018-01-31T14:29:07.780Z,85
2018-01-31T14:30:09.534Z,85
2018-01-31T14:31:10.986Z,80
2018-01-31T14:32:12.509Z,75
2018-01-31T14:33:13.909Z,80
2018-01-31T14:34:15.382Z,75
2018-01-31T14:35:16.821Z,75
2018-01-31T14:36:18.317Z,75
2018-01-31T14:37:19.867Z,75
2018-01-31T14:38:21.315Z,75
2018-01-31T14:39:22.739Z,75
2018-01-31T14:40:24.156Z,75
2018-01-31T14:41:25.644Z,75
2018-01-31T14:42:27.112Z,75
2018-01-31T14:43:28.737Z,70
2018-01-31T14:44:30.182Z,65
2018-01-31T14:45:31.658Z,65
2018-01-31T14:46:33.394Z,65
2018-01-31T14:47:34.958Z,65
2018-01-31T14:48:36.446Z,70
2018-01-31T14:49:37.905Z,70
2018-01-31T14:50:39.369Z,70
2018-01-31T14:51:40.835Z,65
2018-01-31T14:52:42.282Z,65
2018-01-31T14:53:43.833Z,60
2018-01-31T14:54:45.391Z,60
2018-01-31T14:55:46.946Z,60
2018-01-31T14:56:48.489Z,60
2018-01-31T14:57:50.043Z,50
2018-01-31T14:58:51.568Z,50
2018-01-31T14:59:53.007Z,50
2018-01-31T15:00:54.589Z,40
2018-01-31T15:01:56.010Z,45
2018-01-31T15:02:57.594Z,40
2018-01-31T15:03:59.395Z,35
2018-01-31T15:05:00.940Z,25
2018-01-31T15:06:02.447Z,35
2018-01-31T15:07:04.092Z,35
2018-01-31T15:08:05.872Z,30
2018-01-31T15:09:07.441Z,35
2018-01-31T15:10:08.883Z,30
2018-01-31T15:11:10.354Z,30
2018-01-31T15:12:11.898Z,40
2018-01-31T15:13:13.336Z,35
2018-01-31T15:14:14.890Z,30
2018-01-31T15:15:16.321Z,25
2018-01-31T15:16:18.078Z,20
2018-01-31T15:17:19.586Z,20
2018-01-31T15:18:21.080Z,15
2018-01-31T15:19:22.514Z,15
2018-01-31T15:20:23.945Z,20
2018-01-31T15:21:25.392Z,20
2018-01-31T15:22:27.107Z,30
2018-01-31T15:23:28.526Z,25
2018-01-31T15:24:30.194Z,25
2018-01-31T15:25:31.651Z,25
2018-01-31T15:26:33.594Z,25
2018-01-31T15:27:35.043Z,25
2018-01-31T15:28:36.836Z,20
2018-01-31T15:29:38.380Z,20
2018-01-31T15:30:39.881Z,15
2018-01-31T15:31:41.595Z,15
2018-01-31T15:32:43.345Z,10
2018-01-31T15:33:44.956Z,10
2018-01-31T15:34:46.402Z,10
2018-01-31T15:35:47.840Z,5
2018-01-31T15:36:49.520Z,5
2018-01-31T15:37:51.516Z,5
2018-01-31T15:38:53.245Z,20
2018-01-31T15:39:54.826Z,20
2018-01-31T15:40:56.251Z,20
2018-01-31T15:41:57.712Z,20
2018-01-31T15:42:59.552Z,15
2018-01-31T15:44:01.064Z,15
2018-01-31T15:45:02.894Z,15
2018-01-31T15:46:04.341Z,15
2018-01-31T15:47:05.881Z,15
2018-01-31T15:48:07.584Z,15
2018-01-31T15:49:09.063Z,10
2018-01-31T15:50:10.661Z,10
2018-01-31T15:51:12.276Z,10
2018-01-31T15:52:13.754Z,10
2018-01-31T15:53:15.709Z,10
2018-01-31T15:54:17.255Z,10
2018-01-31T15:55:18.946Z,10
2018-01-31T15:56:20.422Z,5
2018-01-31T15:57:22.204Z,5
2018-01-31T15:58:23.631Z,5
2018-01-31T15:59:25.074Z,5
2018-01-31T16:00:26.881Z,5
2018-01-31T16:01:28.456Z,5
2018-01-31T16:02:29.995Z,5
2018-01-31T16:03:31.447Z,5
2018-01-31T16:04:33.196Z,5
2018-01-31T16:05:34.648Z,0
2018-01-31T16:06:36.381Z,0
2018-01-31T16:07:37.901Z,0
2018-01-31T16:08:39.319Z,0
2018-01-31T16:09:40.857Z,0
2018-01-31T16:10:42.676Z,0
2018-01-31T16:11:44.283Z,0
2018-01-31T16:12:45.881Z,0
2018-01-31T16:13:47.612Z,0
2018-01-31T16:14:49.116Z,0
2018-01-31T16:15:50.627Z,0
2018-01-31T16:16:52.188Z,0
2018-01-31T16:17:53.816Z,0
2018-01-31T16:18:55.280Z,0
2018-01-31T16:19:57.016Z,0
2018-01-31T16:20:58.451Z,0
2018-01-31T16:22:00.017Z,0
2018-01-31T16:23:01.611Z,0
2018-01-31T16:24:03.288Z,0
2018-01-31T16:25:05.053Z,0
2018-01-31T16:26:06.524Z,0
2018-01-31T16:27:08.006Z,0
2018-01-31T16:28:09.555Z,0
2018-01-31T16:29:11.351Z,0
2018-01-31T16:30:13.243Z,0
2018-01-31T16:31:14.835Z,0
2018-01-31T16:32:16.312Z,0
2018-01-31T16:33:17.931Z,0